Time;durP1;ratioP1;P1;durP2;ratioP2;P2;SDS_P1;SDS_P2;PMS_P1;PMS_P2;Temp;Humidity;BMP_temperature;BMP_pressure;BME280_temperature;BME280_humidity;BME280_pressure;Samples;Min_cycle;Max_cycle;Signal;HPM_P1;HPM_P2
2022/06/29 00:00:58;;;;;;;34.53;22.67;;;;;;;21.50;100.00;99591.02;1723827;83;21077;-80
2022/06/29 00:03:25;;;;;;;32.55;21.05;;;;;;;21.47;100.00;99584.64;1723599;83;21010;-80
2022/06/29 00:05:52;;;;;;;28.30;18.98;;;;;;;21.45;100.00;99585.41;1723788;83;21011;-80
2022/06/29 00:08:20;;;;;;;26.37;18.40;;;;;;;21.45;100.00;99583.48;1723556;83;21017;-81
2022/06/29 00:10:47;;;;;;;34.33;19.50;;;;;;;21.45;100.00;99578.53;1723854;83;21064;-80
2022/06/29 00:13:14;;;;;;;24.72;17.37;;;;;;;21.44;100.00;99576.30;1723751;83;20982;-80
2022/06/29 00:15:42;;;;;;;25.43;17.10;;;;;;;21.41;100.00;99571.34;1726924;82;21053;-80
2022/06/29 00:18:10;;;;;;;24.67;16.40;;;;;;;21.39;100.00;99563.89;1728420;83;21049;-81
2022/06/29 00:20:37;;;;;;;25.02;16.20;;;;;;;21.37;100.00;99557.27;1728579;83;21314;-80
2022/06/29 00:23:06;;;;;;;28.67;16.90;;;;;;;21.37;100.00;99548.16;1728384;83;21069;-80
2022/06/29 00:25:34;;;;;;;30.17;19.98;;;;;;;21.36;100.00;99534.14;1728372;83;21029;-79
2022/06/29 00:28:00;;;;;;;63.60;38.73;;;;;;;21.35;100.00;99528.34;1728520;83;21021;-81
2022/06/29 00:30:27;;;;;;;84.58;51.53;;;;;;;21.33;100.00;99525.02;1728554;83;21060;-79
2022/06/29 00:32:54;;;;;;;45.65;30.97;;;;;;;21.29;100.00;99527.45;1728667;83;21021;-80
2022/06/29 00:35:21;;;;;;;104.07;61.88;;;;;;;21.28;100.00;99523.57;1728561;83;21025;-82
2022/06/29 00:37:48;;;;;;;109.45;65.78;;;;;;;21.25;100.00;99509.80;1728341;83;21137;-81
2022/06/29 00:40:16;;;;;;;59.08;39.33;;;;;;;21.22;100.00;99498.75;1728554;83;21049;-81
2022/06/29 00:42:43;;;;;;;42.00;26.97;;;;;;;21.19;100.00;99491.01;1728494;83;21066;-79
2022/06/29 00:45:10;;;;;;;32.20;19.77;;;;;;;21.19;100.00;99483.31;1728372;83;20994;-81
2022/06/29 00:47:39;;;;;;;34.00;21.15;;;;;;;21.17;100.00;99468.44;1728219;83;21088;-82
2022/06/29 00:50:07;;;;;;;24.37;16.20;;;;;;;21.16;100.00;99458.55;1728215;83;21010;-80
2022/06/29 00:52:33;;;;;;;24.50;16.30;;;;;;;21.16;100.00;99449.45;1728406;83;21001;-81
2022/06/29 00:55:10;;;;;;;58.87;37.45;;;;;;;21.16;100.00;99444.80;1728371;83;21041;-80
2022/06/29 00:57:38;;;;;;;46.77;30.77;;;;;;;21.16;100.00;99429.69;1666544;86;21061;-81
2022/06/29 01:00:07;;;;;;;77.95;48.95;;;;;;;21.14;100.00;99420.88;1639096;87;21049;-81
2022/06/29 01:02:34;;;;;;;61.02;38.90;;;;;;;21.14;100.00;99410.39;1630199;88;21010;-82
2022/06/29 01:05:02;;;;;;;48.63;31.48;;;;;;;21.14;100.00;99406.27;1629828;88;21086;-79
2022/06/29 01:07:31;;;;;;;55.30;33.53;;;;;;;21.12;100.00;99405.70;1630018;88;21085;-79
2022/06/29 01:10:00;;;;;;;45.60;30.95;;;;;;;21.12;100.00;99391.41;1630124;88;21666;-80
2022/06/29 01:12:27;;;;;;;74.70;41.00;;;;;;;21.13;100.00;99385.39;1629983;88;21125;-78
2022/06/29 01:14:54;;;;;;;84.80;40.52;;;;;;;21.09;100.00;99374.08;1628664;88;21054;-78
2022/06/29 01:17:22;;;;;;;64.05;32.75;;;;;;;21.05;100.00;99357.80;1625286;88;21086;-80
2022/06/29 01:19:49;;;;;;;44.50;25.77;;;;;;;21.04;100.00;99356.14;1625564;88;21050;-79
2022/06/29 01:22:22;;;;;;;39.03;23.07;;;;;;;21.02;100.00;99349.53;1628399;88;21082;-78
2022/06/29 01:24:50;;;;;;;254.65;96.45;;;;;;;21.04;100.00;99347.34;1575642;91;21538;-81
2022/06/29 01:27:17;;;;;;;338.92;158.25;;;;;;;21.04;100.00;99339.11;1573749;91;21190;-78
2022/06/29 01:29:46;;;;;;;132.32;72.10;;;;;;;21.02;100.00;99331.67;1573784;89;21559;-80
2022/06/29 01:32:13;;;;;;;84.30;50.50;;;;;;;21.00;100.00;99326.97;1573381;91;21135;-81
2022/06/29 01:34:40;;;;;;;70.85;42.50;;;;;;;20.98;100.00;99316.79;1573561;91;21062;-80
2022/06/29 01:37:07;;;;;;;77.82;45.98;;;;;;;20.97;100.00;99307.42;1573776;91;21114;-80
2022/06/29 01:39:35;;;;;;;122.53;72.00;;;;;;;20.96;100.00;99285.14;1573556;91;21087;-81
2022/06/29 01:42:03;;;;;;;38.83;25.60;;;;;;;20.94;100.00;99272.20;1573381;91;21099;-81
2022/06/29 01:44:30;;;;;;;39.48;25.02;;;;;;;20.93;100.00;99254.90;1573567;91;21120;-78
2022/06/29 01:46:58;;;;;;;25.77;17.50;;;;;;;20.94;100.00;99248.85;1573590;90;21140;-80
2022/06/29 01:49:25;;;;;;;24.02;15.50;;;;;;;20.92;100.00;99233.17;1573649;91;21055;-81
2022/06/29 01:51:52;;;;;;;24.98;15.58;;;;;;;20.91;100.00;99235.09;1573605;91;21150;-80
2022/06/29 01:54:19;;;;;;;236.62;128.75;;;;;;;20.91;100.00;99226.86;1600403;88;21556;-81
2022/06/29 01:56:46;;;;;;;430.90;233.87;;;;;;;20.91;100.00;99221.88;1625486;88;21048;-81
2022/06/29 01:59:13;;;;;;;156.10;85.87;;;;;;;20.89;100.00;99213.08;1625466;88;21064;-81
2022/06/29 02:01:41;;;;;;;329.93;145.82;;;;;;;20.89;100.00;99203.45;1625471;88;21143;-81
2022/06/29 02:04:08;;;;;;;206.47;104.40;;;;;;;20.89;100.00;99191.91;1625495;88;21095;-79
2022/06/29 02:06:35;;;;;;;116.22;59.23;;;;;;;20.90;100.00;99188.64;1625479;88;21047;-81
2022/06/29 02:09:02;;;;;;;50.03;30.05;;;;;;;20.90;100.00;99185.90;1625132;88;21063;-80
2022/06/29 02:11:29;;;;;;;106.65;59.38;;;;;;;20.90;100.00;99178.48;1625092;88;21096;-80
2022/06/29 02:13:56;;;;;;;76.90;41.92;;;;;;;20.91;100.00;99172.42;1625370;88;21088;-81
2022/06/29 02:16:24;;;;;;;124.97;53.05;;;;;;;20.91;100.00;99171.91;1631188;87;21121;-81
2022/06/29 02:18:51;;;;;;;66.65;36.30;;;;;;;20.90;100.00;99159.23;1632823;88;21584;-80
2022/06/29 02:21:18;;;;;;;60.75;36.88;;;;;;;20.91;100.00;99157.31;1644794;86;21064;-80
2022/06/29 02:23:45;;;;;;;214.00;115.85;;;;;;;20.92;100.00;99147.44;1658674;86;21009;-80
2022/06/29 02:26:12;;;;;;;54.67;36.63;;;;;;;20.92;100.00;99146.06;1658857;86;21024;-79
2022/06/29 02:28:39;;;;;;;37.55;25.50;;;;;;;20.93;100.00;99138.64;1658920;86;21084;-80
2022/06/29 02:36:37;;;;;;;122.22;74.87;;;;;;;20.98;100.00;99149.68;1658780;86;21115;-81
2022/06/29 02:39:04;;;;;;;197.68;111.60;;;;;;;20.98;100.00;99142.29;1658824;86;21076;-81
2022/06/29 02:41:31;;;;;;;171.72;96.90;;;;;;;21.00;100.00;99137.36;1658871;86;21128;-80
2022/06/29 02:43:58;;;;;;;133.52;80.60;;;;;;;21.03;100.00;99146.98;1659037;86;21017;-82
2022/06/29 02:46:25;;;;;;;76.28;47.67;;;;;;;21.05;100.00;99142.90;1659029;86;21029;-80
2022/06/29 02:48:52;;;;;;;274.27;109.80;;;;;;;21.10;100.00;99153.64;1658678;86;21056;-80
2022/06/29 02:51:19;;;;;;;186.80;94.37;;;;;;;21.11;100.00;99158.06;1658752;86;21132;-80
2022/06/29 02:53:47;;;;;;;113.35;60.95;;;;;;;21.11;100.00;99158.06;1658606;86;21084;-81
2022/06/29 02:56:14;;;;;;;48.05;28.20;;;;;;;21.11;100.00;99164.94;1658870;86;21029;-80
2022/06/29 02:58:41;;;;;;;35.17;20.60;;;;;;;21.12;100.00;99167.39;1658917;86;20989;-81
2022/06/29 03:01:08;;;;;;;28.15;18.52;;;;;;;21.13;100.00;99166.31;1658753;86;21503;-81
2022/06/29 03:03:35;;;;;;;109.55;67.30;;;;;;;21.15;100.00;99171.00;1659088;86;21051;-81
2022/06/29 03:06:02;;;;;;;146.32;88.90;;;;;;;21.16;100.00;99174.56;1659072;86;21060;-80
2022/06/29 03:08:29;;;;;;;168.75;98.12;;;;;;;21.17;100.00;99178.44;1658611;86;21036;-79
2022/06/29 03:10:56;;;;;;;177.00;103.15;;;;;;;21.18;100.00;99173.78;1658985;86;21060;-81
2022/06/29 03:13:24;;;;;;;271.93;141.32;;;;;;;21.20;100.00;99172.98;1661310;86;21072;-80
2022/06/29 03:15:51;;;;;;;293.35;145.62;;;;;;;21.22;100.00;99177.11;1661149;85;21115;-80
2022/06/29 03:18:19;;;;;;;132.40;64.27;;;;;;;21.23;100.00;99178.78;1660847;86;21092;-80
2022/06/29 03:20:47;;;;;;;180.20;87.65;;;;;;;21.27;100.00;99192.83;1660291;86;21048;-80
2022/06/29 03:23:13;;;;;;;73.60;36.28;;;;;;;21.30;100.00;99194.20;1681962;85;21068;-79
2022/06/29 03:25:41;;;;;;;323.48;152.80;;;;;;;21.32;100.00;99200.27;1681681;85;21057;-80
2022/06/29 03:28:08;;;;;;;382.10;191.45;;;;;;;21.34;100.00;99196.73;1681803;85;21092;-79
2022/06/29 03:30:36;;;;;;;243.22;125.02;;;;;;;21.37;100.00;99201.16;1681597;85;21064;-81
2022/06/29 03:33:03;;;;;;;322.75;163.72;;;;;;;21.43;100.00;99200.66;1681720;85;21135;-80
2022/06/29 03:35:30;;;;;;;222.52;119.35;;;;;;;21.50;100.00;99202.66;1681719;85;21084;-80
2022/06/29 03:37:58;;;;;;;163.28;90.92;;;;;;;21.56;100.00;99209.84;1681868;85;21159;-81
2022/06/29 03:40:25;;;;;;;56.05;32.35;;;;;;;21.61;100.00;99214.02;1681916;85;21061;-79
2022/06/29 03:42:54;;;;;;;110.90;61.18;;;;;;;21.66;100.00;99217.91;1681751;85;21057;-80
2022/06/29 03:45:21;;;;;;;45.80;28.23;;;;;;;21.71;100.00;99228.92;1681906;85;21025;-80
2022/06/29 03:47:48;;;;;;;94.58;54.03;;;;;;;21.75;100.00;99236.41;1660628;86;21100;-81
2022/06/29 03:50:15;;;;;;;92.92;54.50;;;;;;;21.81;100.00;99251.02;1681911;85;21037;-80
2022/06/29 03:52:42;;;;;;;73.05;44.05;;;;;;;21.88;100.00;99261.80;1681915;85;21036;-81
2022/06/29 03:55:09;;;;;;;93.80;56.42;;;;;;;21.93;100.00;99265.41;1681999;85;21076;-80
2022/06/29 03:57:36;;;;;;;55.20;34.35;;;;;;;21.98;100.00;99278.39;1681807;85;21056;-80
2022/06/29 04:00:05;;;;;;;89.85;55.33;;;;;;;22.04;100.00;99282.00;1681651;85;21044;-81
2022/06/29 04:02:34;;;;;;;133.63;85.38;;;;;;;22.10;100.00;99290.59;1678223;85;21060;-79
2022/06/29 04:05:02;;;;;;;84.32;54.73;;;;;;;22.17;100.00;99289.25;1681845;85;21510;-81
2022/06/29 04:07:29;;;;;;;75.15;51.15;;;;;;;22.22;100.00;99309.09;1681874;84;21025;-81
2022/06/29 04:09:59;;;;;;;52.10;35.68;;;;;;;22.26;100.00;99322.63;1681590;85;21522;-81
2022/06/29 04:12:29;;;;;;;115.77;73.72;;;;;;;22.31;100.00;99335.61;1681791;85;21044;-80
2022/06/29 04:14:56;;;;;;;63.90;42.67;;;;;;;22.37;100.00;99342.27;1681757;85;21045;-81
2022/06/29 04:17:24;;;;;;;61.48;43.45;;;;;;;22.46;100.00;99345.36;1674491;84;21046;-80
2022/06/29 04:19:53;;;;;;;82.82;57.35;;;;;;;22.56;100.00;99352.30;1674268;85;20994;-80
2022/06/29 04:22:20;;;;;;;85.22;59.20;;;;;;;22.65;100.00;99373.85;1674091;86;21062;-81
2022/06/29 04:24:47;;;;;;;96.70;67.03;;;;;;;22.75;100.00;99391.80;1674065;86;21069;-80
2022/06/29 04:27:14;;;;;;;63.78;43.92;;;;;;;22.87;100.00;99400.68;1673981;85;21587;-81
2022/06/29 04:29:41;;;;;;;58.80;42.38;;;;;;;23.05;100.00;99414.58;1674098;86;21054;-81
2022/06/29 04:32:09;;;;;;;107.85;70.05;;;;;;;23.26;100.00;99428.46;1674087;86;21029;-81
2022/06/29 04:34:37;;;;;;;53.35;38.08;;;;;;;23.46;100.00;99445.09;1673880;85;21045;-81
2022/06/29 04:37:04;;;;;;;101.30;66.60;;;;;;;23.66;100.00;99457.30;1674016;85;21094;-81
2022/06/29 04:39:31;;;;;;;83.37;52.23;;;;;;;23.85;100.00;99489.38;1674067;85;21564;-80
2022/06/29 04:41:58;;;;;;;72.92;48.10;;;;;;;23.99;100.00;99516.77;1674141;86;21096;-80
2022/06/29 04:44:25;;;;;;;29.98;20.52;;;;;;;24.07;100.00;99543.83;1674135;86;21543;-81
2022/06/29 04:46:54;;;;;;;25.62;16.82;;;;;;;24.10;100.00;99568.70;1673945;85;21065;-80
2022/06/29 04:49:21;;;;;;;57.10;35.55;;;;;;;24.13;100.00;99579.19;1674030;86;21009;-80
2022/06/29 04:51:48;;;;;;;30.00;19.32;;;;;;;24.24;100.00;99583.66;1674300;84;21013;-81
2022/06/29 04:54:15;;;;;;;26.23;15.50;;;;;;;24.38;100.00;99593.63;1673895;86;21046;-79
2022/06/29 04:56:42;;;;;;;33.65;20.52;;;;;;;24.52;100.00;99612.44;1674794;85;21049;-80
2022/06/29 04:59:10;;;;;;;108.05;61.05;;;;;;;24.60;100.00;99629.34;1675377;86;21508;-79
2022/06/29 05:01:37;;;;;;;41.25;25.20;;;;;;;24.70;100.00;99644.27;1674100;85;21104;-79
2022/06/29 05:04:05;;;;;;;61.83;37.95;;;;;;;24.79;100.00;99657.85;1673912;86;21038;-79
2022/06/29 05:06:32;;;;;;;83.10;51.40;;;;;;;24.91;100.00;99668.63;1674035;86;21044;-80
2022/06/29 05:08:59;;;;;;;38.30;24.27;;;;;;;24.97;100.00;99673.89;1673892;86;21077;-78
2022/06/29 05:11:26;;;;;;;444.28;211.77;;;;;;;25.07;100.00;99690.21;1684913;83;21080;-84
2022/06/29 05:13:53;;;;;;;235.02;125.55;;;;;;;25.16;100.00;99703.77;1723435;83;21017;-83
2022/06/29 05:16:20;;;;;;;262.85;139.55;;;;;;;25.19;100.00;99712.34;1680108;84;21041;-78
2022/06/29 05:18:49;;;;;;;106.47;62.70;;;;;;;25.27;100.00;99723.46;1674479;86;21105;-77
2022/06/29 05:21:18;;;;;;;154.05;92.45;;;;;;;25.34;100.00;99735.08;1673635;86;21064;-81
2022/06/29 05:23:44;;;;;;;299.27;169.15;;;;;;;25.42;100.00;99738.41;1674379;85;21061;-79
2022/06/29 05:26:12;;;;;;;135.20;91.15;;;;;;;25.54;100.00;99742.55;1693291;84;21016;-79
2022/06/29 05:28:40;;;;;;;74.65;51.30;;;;;;;25.67;100.00;99748.06;1696135;84;21509;-82
2022/06/29 05:31:08;;;;;;;35.00;23.62;;;;;;;25.81;100.00;99758.02;1696253;84;21116;-80
2022/06/29 05:33:37;;;;;;;52.40;41.53;;;;;;;26.10;100.00;99767.13;1656521;86;20994;-80
2022/06/29 05:36:06;;;;;;;30.10;17.35;;;;;;;26.30;100.00;99785.09;1693247;84;21023;-81
2022/06/29 05:38:33;;;;;;;28.07;18.07;;;;;;;26.43;100.00;99802.23;1669393;86;21020;-84
2022/06/29 05:41:02;;;;;;;200.57;116.75;;;;;;;26.61;100.00;99790.55;1695329;84;20992;-85
2022/06/29 05:43:30;;;;;;;158.60;95.20;;;;;;;26.89;100.00;99794.57;1695231;84;21042;-80
2022/06/29 05:45:58;;;;;;;53.58;35.38;;;;;;;27.19;100.00;99807.18;1693047;84;21036;-82
2022/06/29 05:48:26;;;;;;;45.78;28.73;;;;;;;27.41;100.00;99824.81;1693440;84;20989;-80
2022/06/29 05:50:54;;;;;;;50.98;28.60;;;;;;;27.56;100.00;99835.00;1694588;84;21080;-81
2022/06/29 05:53:22;;;;;;;506.00;272.23;;;;;;;27.70;100.00;99840.16;1694964;84;21658;-79
2022/06/29 05:55:48;;;;;;;149.27;112.68;;;;;;;27.80;100.00;99847.56;1655857;86;21445;-81
2022/06/29 05:58:18;;;;;;;55.43;32.65;;;;;;;27.86;100.00;99861.69;1686979;84;21453;-79
2022/06/29 06:00:44;;;;;;;55.43;31.95;;;;;;;27.82;100.00;99864.22;1661730;86;21017;-80
2022/06/29 06:03:11;;;;;;;653.12;335.38;;;;;;;27.89;100.00;99858.88;1674398;86;21077;-81
2022/06/29 06:05:38;;;;;;;343.30;175.15;;;;;;;27.98;100.00;99873.86;1693146;84;21052;-81
2022/06/29 06:08:06;;;;;;;352.60;198.55;;;;;;;27.99;100.00;99876.89;1696954;84;20994;-82
2022/06/29 06:10:33;;;;;;;83.07;49.08;;;;;;;28.13;100.00;99879.83;1675375;86;21021;-83
2022/06/29 06:13:00;;;;;;;46.18;27.75;;;;;;;28.33;100.00;99884.36;1695859;84;21005;-82
2022/06/29 06:15:26;;;;;;;38.38;24.95;;;;;;;28.38;100.00;99892.11;1662619;86;20974;-84
2022/06/29 06:17:54;;;;;;;72.92;42.03;;;;;;;28.51;100.00;99887.80;1665444;85;21021;-84
2022/06/29 06:20:22;;;;;;;314.35;193.35;;;;;;;28.73;100.00;99898.42;1697537;84;21052;-83
2022/06/29 06:22:50;;;;;;;57.15;37.15;;;;;;;28.79;100.00;99917.27;1667580;86;20994;-81
2022/06/29 06:25:17;;;;;;;108.92;69.90;;;;;;;28.83;100.00;99913.33;1678387;85;21079;-84
2022/06/29 06:27:44;;;;;;;231.23;146.50;;;;;;;29.07;100.00;99921.68;1672495;86;21029;-86
2022/06/29 06:30:12;;;;;;;69.58;49.55;;;;;;;29.14;100.00;99935.49;1661996;86;21077;-83
2022/06/29 06:32:39;;;;;;;112.68;74.90;;;;;;;29.08;100.00;99935.30;1666369;86;21117;-82
2022/06/29 06:35:09;;;;;;;36.33;24.72;;;;;;;29.13;100.00;99938.03;1673226;86;21121;-84
2022/06/29 06:37:36;;;;;;;162.22;112.12;;;;;;;29.30;100.00;99931.98;1673175;86;21116;-82
2022/06/29 06:42:51;;;;;;;49.27;33.80;;;;;;;29.43;100.00;99943.51;1693534;85;21192;-84
2022/06/29 06:45:18;;;;;;;31.48;19.20;;;;;;;29.55;100.00;99946.69;1669358;85;21076;-81
2022/06/29 06:47:45;;;;;;;25.25;16.52;;;;;;;29.65;100.00;99950.72;1693206;85;21037;-82
2022/06/29 06:50:12;;;;;;;23.55;14.40;;;;;;;29.75;100.00;99948.39;1688111;85;21014;-79
2022/06/29 06:52:39;;;;;;;71.40;46.98;;;;;;;30.04;100.00;99957.96;1684871;85;21034;-80
2022/06/29 06:55:08;;;;;;;69.97;53.10;;;;;;;30.12;100.00;99967.62;1684319;85;21086;-79
2022/06/29 06:57:39;;;;;;;47.48;35.17;;;;;;;30.16;100.00;99974.23;1684705;85;21002;-81
2022/06/29 07:00:09;;;;;;;21.52;14.93;;;;;;;30.13;100.00;99974.83;1684836;85;21062;-84
2022/06/29 07:02:37;;;;;;;47.70;30.88;;;;;;;30.23;100.00;99989.19;1685593;85;21006;-83
2022/06/29 07:05:05;;;;;;;119.77;72.25;;;;;;;30.25;100.00;99986.34;1685091;85;21014;-79
2022/06/29 07:07:32;;;;;;;375.20;308.63;;;;;;;30.40;100.00;99978.88;1685142;85;21074;-84
2022/06/29 07:09:59;;;;;;;124.53;90.83;;;;;;;30.71;100.00;99989.52;1687626;84;21530;-84
2022/06/29 07:12:26;;;;;;;32.60;22.52;;;;;;;30.79;100.00;99995.77;1691387;84;21542;-80
2022/06/29 07:14:53;;;;;;;38.92;26.00;;;;;;;30.83;100.00;100001.02;1698266;84;21562;-82
2022/06/29 07:17:37;;;;;;;45.43;28.27;;;;;;;30.88;100.00;99998.67;1700706;83;21030;-87
2022/06/29 07:20:07;;;;;;;29.72;21.77;;;;;;;31.06;100.00;99997.81;1675907;84;21140;-84
2022/06/29 07:22:34;;;;;;;22.82;14.15;;;;;;;31.40;100.00;99998.77;1703454;84;20980;-82
2022/06/29 07:25:02;;;;;;;39.33;29.12;;;;;;;31.68;100.00;100016.09;1674822;86;21077;-76
2022/06/29 07:27:29;;;;;;;24.27;14.58;;;;;;;31.94;100.00;100017.75;1702084;84;21107;-79
2022/06/29 07:29:56;;;;;;;22.90;13.20;;;;;;;32.19;100.00;100024.73;1670586;86;21171;-81
2022/06/29 07:32:23;;;;;;;83.12;43.50;;;;;;;32.39;100.00;100023.43;1668460;86;20979;-84
2022/06/29 07:34:50;;;;;;;96.72;67.67;;;;;;;32.55;100.00;100026.67;1638756;86;21049;-84
2022/06/29 07:37:17;;;;;;;32.03;24.20;;;;;;;32.67;100.00;100021.90;1668882;86;21137;-82
2022/06/29 07:39:44;;;;;;;25.02;17.98;;;;;;;32.84;100.00;100021.19;1694269;84;20994;-84
2022/06/29 07:42:13;;;;;;;36.93;23.42;;;;;;;32.97;100.00;100020.28;1672963;84;21931;-86
2022/06/29 07:44:40;;;;;;;22.35;15.32;;;;;;;33.14;100.00;100026.55;1667267;86;20983;-87
2022/06/29 07:47:08;;;;;;;41.60;28.25;;;;;;;33.28;100.00;100033.45;1660556;86;21555;-81
2022/06/29 07:49:35;;;;;;;38.98;27.77;;;;;;;33.37;100.00;100041.30;1654969;86;21038;-86
2022/06/29 07:52:03;;;;;;;24.15;14.83;;;;;;;33.16;100.00;100040.23;1663433;85;21022;-83
2022/06/29 07:54:30;;;;;;;19.20;11.90;;;;;;;33.15;100.00;100033.81;1678202;84;21006;-85
2022/06/29 07:56:57;;;;;;;151.95;98.07;;;;;;;33.27;100.00;100027.58;1658477;86;21534;-84
2022/06/29 07:59:26;;;;;;;43.38;30.70;;;;;;;33.40;100.00;100034.23;1647281;86;21035;-83
2022/06/29 08:01:53;;;;;;;43.55;35.40;;;;;;;33.33;100.00;100033.89;1668168;85;21056;-81
2022/06/29 08:04:20;;;;;;;101.60;67.75;;;;;;;33.32;100.00;100023.81;1694461;84;21097;-82
2022/06/29 08:06:49;;;;;;;26.95;18.30;;;;;;;33.54;100.00;100031.29;1691078;85;21049;-85
2022/06/29 08:09:16;;;;;;;41.88;28.10;;;;;;;33.44;100.00;100026.24;1690690;85;21050;-85
2022/06/29 08:11:45;;;;;;;63.80;39.30;;;;;;;33.49;100.00;100023.29;1693848;84;21001;-87
2022/06/29 08:14:12;;;;;;;62.30;42.38;;;;;;;33.70;100.00;100018.52;1699119;85;21110;-86
2022/06/29 08:16:39;;;;;;;25.72;14.78;;;;;;;33.87;100.00;100030.31;1695168;84;21522;-85
2022/06/29 08:19:06;;;;;;;46.92;31.00;;;;;;;33.90;100.00;100033.06;1689828;85;21511;-85
2022/06/29 08:21:35;;;;;;;54.10;35.33;;;;;;;33.89;100.00;100036.42;1690569;85;21078;-85
2022/06/29 08:24:04;;;;;;;160.30;93.20;;;;;;;34.04;100.00;100026.71;1690611;85;21089;-83
2022/06/29 08:26:33;;;;;;;85.47;51.45;;;;;;;34.05;100.00;100034.80;1690598;85;21010;-85
2022/06/29 08:29:07;;;;;;;32.60;18.87;;;;;;;33.97;100.00;100036.20;1624867;88;21101;-85
2022/06/29 08:31:39;;;;;;;30.17;15.85;;;;;;;33.91;100.00;100038.89;1574659;91;21620;-86
2022/06/29 08:34:07;;;;;;;27.93;17.20;;;;;;;34.09;100.00;100029.91;1561792;92;21188;-87
2022/06/29 08:36:36;;;;;;;31.07;19.30;;;;;;;34.39;100.00;100037.97;1574397;90;21109;-85
2022/06/29 08:39:05;;;;;;;38.15;23.10;;;;;;;34.69;98.43;100036.10;1561609;92;21175;-76
2022/06/29 08:41:33;;;;;;;50.33;32.00;;;;;;;34.93;90.94;100039.77;1573505;90;21077;-90
2022/06/29 08:44:04;;;;;;;18.12;9.30;;;;;;;34.98;86.22;100038.19;1561594;91;21136;-87
2022/06/29 08:46:33;;;;;;;19.62;9.03;;;;;;;34.89;79.68;100043.60;1573823;91;21045;-87
2022/06/29 08:49:02;;;;;;;28.85;12.93;;;;;;;34.74;75.18;100040.17;1573916;91;21121;-87
2022/06/29 08:51:36;;;;;;;106.52;58.73;;;;;;;34.56;74.65;100033.71;1542074;92;21055;-88
2022/06/29 08:54:06;;;;;;;18.92;10.68;;;;;;;34.42;78.32;100034.48;1574872;88;21006;-86
2022/06/29 08:56:34;;;;;;;55.78;33.90;;;;;;;34.49;71.66;100039.00;1578645;88;21054;-89
2022/06/29 08:59:11;;;;;;;48.83;30.48;;;;;;;34.39;75.12;100026.16;1640248;88;21108;-88
2022/06/29 09:01:40;;;;;;;45.70;29.37;;;;;;;34.66;77.01;100029.74;1617327;87;21099;-89
2022/06/29 09:04:09;;;;;;;15.55;9.10;;;;;;;34.93;72.14;100032.75;1617965;88;21100;-88
2022/06/29 09:06:38;;;;;;;50.43;32.13;;;;;;;35.23;74.10;100034.83;1618421;89;21196;-87
2022/06/29 09:09:06;;;;;;;23.00;12.37;;;;;;;35.59;76.67;100032.07;1617533;88;21069;-86
2022/06/29 09:11:36;;;;;;;19.52;8.10;;;;;;;35.91;72.05;100033.36;1622055;87;21093;-82
2022/06/29 09:14:15;;;;;;;16.17;8.18;;;;;;;36.09;68.53;100034.89;1601107;88;21103;-77
2022/06/29 09:16:57;;;;;;;30.75;18.05;;;;;;;36.06;63.50;100036.17;1578502;90;21149;-82
2022/06/29 09:19:27;;;;;;;;;;;;;;;35.99;64.54;100038.11;1611991;89;21128;-77
2022/06/29 09:21:58;;;;;;;31.55;17.00;;;;;;;35.68;66.28;100039.86;1605352;89;20178;-80
2022/06/29 09:24:29;;;;;;;32.75;10.50;;;;;;;35.62;76.50;100032.21;1617472;89;21646;-78
2022/06/29 09:26:59;;;;;;;29.07;14.80;;;;;;;35.97;72.44;100034.02;1605881;89;21035;-76
2022/06/29 09:29:35;;;;;;;18.82;8.55;;;;;;;36.41;74.98;100026.87;1605931;89;21173;-78
2022/06/29 09:32:13;;;;;;;28.73;16.42;;;;;;;36.93;71.74;100030.33;1605136;89;21068;-79
2022/06/29 09:34:48;;;;;;;121.67;71.07;;;;;;;37.26;67.70;100020.42;1577577;90;21159;-79
2022/06/29 09:37:20;;;;;;;58.25;35.85;;;;;;;37.16;59.90;100018.03;1585451;89;21005;-79
2022/06/29 09:39:53;;;;;;;24.32;14.13;;;;;;;36.93;60.17;100017.65;1579227;89;21179;-77
2022/06/29 09:42:24;;;;;;;63.90;40.52;;;;;;;36.77;61.50;100013.28;1523912;94;21104;-77
2022/06/29 09:44:52;;;;;;;127.37;79.97;;;;;;;36.83;64.12;100011.87;1524435;93;21154;-82
2022/06/29 09:47:21;;;;;;;72.60;43.65;;;;;;;37.00;64.38;100017.30;1524564;94;21325;-83
2022/06/29 09:49:59;;;;;;;81.15;47.80;;;;;;;36.88;56.52;100013.05;1524586;94;21153;-79
2022/06/29 09:52:26;;;;;;;28.10;15.25;;;;;;;36.48;58.52;100012.23;1478533;97;21180;-79
2022/06/29 09:54:59;;;;;;;19.98;11.20;;;;;;;36.46;62.63;100006.95;1474417;96;21593;-82
2022/06/29 09:57:32;;;;;;;20.40;10.65;;;;;;;36.62;58.40;100000.07;1434741;99;21097;-82
2022/06/29 10:02:54;;;;;;;30.10;17.02;;;;;;;36.81;61.43;100012.24;1446385;99;21252;-78
2022/06/29 10:05:23;;;;;;;21.82;13.18;;;;;;;36.92;55.91;100009.80;1446346;99;21140;-84
2022/06/29 10:07:52;;;;;;;68.80;41.77;;;;;;;36.99;57.24;100005.81;1446964;99;21112;-85
2022/06/29 10:10:26;;;;;;;35.63;21.40;;;;;;;37.18;56.22;100010.07;1386090;104;21113;-84
2022/06/29 10:16:08;;;;;;;23.12;11.50;;;;;;;37.38;51.38;100005.48;1390523;103;21168;-85
2022/06/29 10:18:52;;;;;;;25.45;11.93;;;;;;;37.53;53.14;100011.00;1366536;103;21229;-81
2022/06/29 10:21:29;;;;;;;18.65;9.58;;;;;;;37.73;50.83;100018.52;1345255;101;21172;-88
2022/06/29 10:23:59;;;;;;;37.53;19.32;;;;;;;37.82;51.29;100007.09;1347131;107;21690;-83
2022/06/29 10:26:32;;;;;;;20.37;9.25;;;;;;;38.04;49.08;100013.41;1347445;107;21149;-84
2022/06/29 10:29:22;;;;;;;47.50;21.80;;;;;;;37.85;46.63;100008.40;1346617;107;21079;-85
2022/06/29 10:31:59;;;;;;;19.30;9.15;;;;;;;37.38;47.54;100009.14;1346757;107;21147;-83
2022/06/29 10:34:34;;;;;;;30.72;15.05;;;;;;;36.98;50.49;100017.42;1347413;107;21107;-83
2022/06/29 10:37:16;;;;;;;123.62;55.08;;;;;;;36.84;51.94;100020.56;1347568;104;21146;-87
2022/06/29 10:39:52;;;;;;;33.42;18.23;;;;;;;36.94;54.73;100024.35;1346398;107;21169;-78
2022/06/29 10:45:16;;;;;;;202.45;103.47;;;;;;;37.60;53.49;100010.63;1425772;98;21114;-85
2022/06/29 10:48:05;;;;;;;162.40;72.65;;;;;;;37.59;50.10;100003.37;1447205;99;21095;-86
2022/06/29 10:50:35;;;;;;;319.30;129.18;;;;;;;37.35;50.66;100013.25;1450004;98;21614;-85
2022/06/29 10:53:08;;;;;;;80.47;48.02;;;;;;;36.96;49.93;100008.50;1438846;96;21185;-85
2022/06/29 10:55:41;;;;;;;80.57;46.92;;;;;;;36.76;53.35;100006.83;1451547;98;21095;-82
2022/06/29 10:58:08;;;;;;;26.20;14.45;;;;;;;36.71;55.21;100014.09;1429310;100;21362;-85
2022/06/29 11:00:43;;;;;;;65.50;37.42;;;;;;;36.74;54.73;100017.59;1451689;99;21143;-83
2022/06/29 11:03:18;;;;;;;78.47;43.80;;;;;;;36.79;54.77;100027.83;1440694;100;21163;-81
2022/06/29 11:15:39;;;;;;;24.40;15.20;;;;;;;36.68;57.34;100026.05;1484772;96;21167;-84
2022/06/29 11:16:36;;;;;;;15.08;9.08;;;;;;;36.94;55.26;100010.26;1486143;96;21156;-87
2022/06/29 11:19:05;;;;;;;12.20;8.25;;;;;;;36.90;52.85;100011.30;1490524;94;21625;-85
2022/06/29 11:21:33;;;;;;;15.18;8.18;;;;;;;36.89;55.78;100006.27;1522427;93;21118;-83
2022/06/29 11:24:04;;;;;;;27.40;17.27;;;;;;;37.10;54.76;100003.91;1486374;96;21174;-81
2022/06/29 11:26:33;;;;;;;399.90;213.22;;;;;;;37.29;53.84;100007.00;1476968;96;21580;-80
2022/06/29 11:29:03;;;;;;;97.17;53.60;;;;;;;37.20;51.23;100009.13;1528777;93;21129;-79
2022/06/29 11:31:34;;;;;;;41.55;24.60;;;;;;;36.86;52.18;100003.54;1523703;92;21091;-78
2022/06/29 11:34:01;;;;;;;15.90;8.98;;;;;;;36.76;54.51;99994.72;1495204;95;21157;-77
2022/06/29 11:39:06;;;;;;;14.53;7.20;;;;;;;36.61;54.16;99987.15;1494735;96;21059;-79
2022/06/29 11:44:27;;;;;;;25.00;10.35;;;;;;;36.53;54.71;99986.68;1490827;95;21127;-78